sensor_id;sensor_type;location;lat;lon;timestamp;temperature;humidity
4673;DHT22;61885;53.560;9.940;2022-11-15T00:02:02;7.10;99.90
4673;DHT22;61885;53.560;9.940;2022-11-15T00:04:32;7.00;99.90
4673;DHT22;61885;53.560;9.940;2022-11-15T00:07:05;7.00;99.90
4673;DHT22;61885;53.560;9.940;2022-11-15T00:09:36;7.00;99.90
4673;DHT22;61885;53.560;9.940;2022-11-15T00:12:05;7.00;99.90
4673;DHT22;61885;53.560;9.940;2022-11-15T00:14:38;7.00;99.90
4673;DHT22;61885;53.560;9.940;2022-11-15T00:17:08;7.00;99.90
4673;DHT22;61885;53.560;9.940;2022-11-15T00:19:38;7.00;99.90
4673;DHT22;61885;53.560;9.940;2022-11-15T00:22:10;7.00;99.90
4673;DHT22;61885;53.560;9.940;2022-11-15T00:24:41;7.10;99.90
4673;DHT22;61885;53.560;9.940;2022-11-15T00:27:14;7.10;99.90
4673;DHT22;61885;53.560;9.940;2022-11-15T00:29:46;7.30;99.90
4673;DHT22;61885;53.560;9.940;2022-11-15T00:32:15;5.10;99.90
4673;DHT22;61885;53.560;9.940;2022-11-15T00:34:46;7.20;99.90
4673;DHT22;61885;53.560;9.940;2022-11-15T00:37:19;7.20;99.90
4673;DHT22;61885;53.560;9.940;2022-11-15T00:39:50;7.20;99.90
4673;DHT22;61885;53.560;9.940;2022-11-15T00:42:20;7.20;99.90
4673;DHT22;61885;53.560;9.940;2022-11-15T00:44:52;7.00;99.90
4673;DHT22;61885;53.560;9.940;2022-11-15T00:47:22;7.00;99.90
4673;DHT22;61885;53.560;9.940;2022-11-15T00:49:52;7.00;99.90
4673;DHT22;61885;53.560;9.940;2022-11-15T00:52:21;7.00;99.90
4673;DHT22;61885;53.560;9.940;2022-11-15T00:54:52;7.00;99.90
4673;DHT22;61885;53.560;9.940;2022-11-15T00:57:21;7.00;99.90
4673;DHT22;61885;53.560;9.940;2022-11-15T00:59:56;7.00;99.90
4673;DHT22;61885;53.560;9.940;2022-11-15T01:02:26;7.10;99.90
4673;DHT22;61885;53.560;9.940;2022-11-15T01:04:56;7.00;99.90
4673;DHT22;61885;53.560;9.940;2022-11-15T01:07:25;7.10;99.90
4673;DHT22;61885;53.560;9.940;2022-11-15T01:09:56;7.00;99.90
4673;DHT22;61885;53.560;9.940;2022-11-15T01:12:29;6.90;99.90
4673;DHT22;61885;53.560;9.940;2022-11-15T01:15:02;6.70;99.90
4673;DHT22;61885;53.560;9.940;2022-11-15T01:17:33;6.80;99.90
4673;DHT22;61885;53.560;9.940;2022-11-15T01:20:03;6.80;99.90
4673;DHT22;61885;53.560;9.940;2022-11-15T01:22:33;6.80;99.90
4673;DHT22;61885;53.560;9.940;2022-11-15T01:25:03;6.70;99.90
4673;DHT22;61885;53.560;9.940;2022-11-15T01:27:32;6.60;99.90
4673;DHT22;61885;53.560;9.940;2022-11-15T01:30:07;6.60;99.90
4673;DHT22;61885;53.560;9.940;2022-11-15T01:32:37;6.60;99.90
4673;DHT22;61885;53.560;9.940;2022-11-15T01:35:11;6.60;99.90
4673;DHT22;61885;53.560;9.940;2022-11-15T01:37:45;6.60;99.90
4673;DHT22;61885;53.560;9.940;2022-11-15T01:40:17;6.50;99.90
4673;DHT22;61885;53.560;9.940;2022-11-15T01:42:48;6.50;99.90
4673;DHT22;61885;53.560;9.940;2022-11-15T01:45:22;6.50;99.90
4673;DHT22;61885;53.560;9.940;2022-11-15T01:47:55;6.40;99.90
4673;DHT22;61885;53.560;9.940;2022-11-15T01:50:29;6.40;99.90
4673;DHT22;61885;53.560;9.940;2022-11-15T01:53:00;6.30;99.90
4673;DHT22;61885;53.560;9.940;2022-11-15T01:55:30;6.40;99.90
4673;DHT22;61885;53.560;9.940;2022-11-15T01:58:02;6.40;99.90
4673;DHT22;61885;53.560;9.940;2022-11-15T02:00:36;6.30;99.90
4673;DHT22;61885;53.560;9.940;2022-11-15T02:03:06;6.30;99.90
4673;DHT22;61885;53.560;9.940;2022-11-15T02:05:36;6.30;99.90
4673;DHT22;61885;53.560;9.940;2022-11-15T02:08:06;6.30;99.90
4673;DHT22;61885;53.560;9.940;2022-11-15T02:10:46;6.30;99.90
4673;DHT22;61885;53.560;9.940;2022-11-15T02:13:16;6.30;99.90
4673;DHT22;61885;53.560;9.940;2022-11-15T02:16:00;6.30;99.90
4673;DHT22;61885;53.560;9.940;2022-11-15T02:18:34;6.30;99.90
4673;DHT22;61885;53.560;9.940;2022-11-15T02:21:14;6.20;99.90
4673;DHT22;61885;53.560;9.940;2022-11-15T02:24:14;6.20;99.90
4673;DHT22;61885;53.560;9.940;2022-11-15T02:32:54;6.20;99.90
4673;DHT22;61885;53.560;9.940;2022-11-15T02:35:32;6.20;99.90
4673;DHT22;61885;53.560;9.940;2022-11-15T02:38:10;6.20;99.90
4673;DHT22;61885;53.560;9.940;2022-11-15T02:40:47;6.20;99.90
4673;DHT22;61885;53.560;9.940;2022-11-15T02:43:28;6.20;99.90
4673;DHT22;61885;53.560;9.940;2022-11-15T02:46:16;6.10;99.90
4673;DHT22;61885;53.560;9.940;2022-11-15T02:49:14;6.10;99.90
4673;DHT22;61885;53.560;9.940;2022-11-15T02:51:46;6.00;99.90
4673;DHT22;61885;53.560;9.940;2022-11-15T02:54:21;6.10;99.90
4673;DHT22;61885;53.560;9.940;2022-11-15T02:56:55;6.10;99.90
4673;DHT22;61885;53.560;9.940;2022-11-15T03:02:55;6.10;99.90
4673;DHT22;61885;53.560;9.940;2022-11-15T03:05:35;6.20;99.90
4673;DHT22;61885;53.560;9.940;2022-11-15T03:08:10;6.20;99.90
4673;DHT22;61885;53.560;9.940;2022-11-15T03:10:49;6.20;99.90
4673;DHT22;61885;53.560;9.940;2022-11-15T03:13:26;6.20;99.90
4673;DHT22;61885;53.560;9.940;2022-11-15T03:16:02;6.10;99.90
4673;DHT22;61885;53.560;9.940;2022-11-15T03:18:34;6.10;99.90
4673;DHT22;61885;53.560;9.940;2022-11-15T03:21:09;6.10;99.90
4673;DHT22;61885;53.560;9.940;2022-11-15T03:23:40;6.10;99.90
4673;DHT22;61885;53.560;9.940;2022-11-15T03:26:14;4.10;99.90
4673;DHT22;61885;53.560;9.940;2022-11-15T03:28:51;6.10;99.90
4673;DHT22;61885;53.560;9.940;2022-11-15T03:31:23;6.10;99.90
4673;DHT22;61885;53.560;9.940;2022-11-15T03:34:24;6.20;99.90
4673;DHT22;61885;53.560;9.940;2022-11-15T03:36:59;6.20;99.90
4673;DHT22;61885;53.560;9.940;2022-11-15T03:39:29;6.20;99.90
4673;DHT22;61885;53.560;9.940;2022-11-15T03:42:08;6.20;99.90
4673;DHT22;61885;53.560;9.940;2022-11-15T03:44:47;6.30;99.90
4673;DHT22;61885;53.560;9.940;2022-11-15T03:47:24;6.20;99.90
4673;DHT22;61885;53.560;9.940;2022-11-15T03:50:02;6.20;99.90
4673;DHT22;61885;53.560;9.940;2022-11-15T03:52:43;6.20;99.90
4673;DHT22;61885;53.560;9.940;2022-11-15T03:55:17;6.20;99.90
4673;DHT22;61885;53.560;9.940;2022-11-15T03:57:49;6.20;99.90
4673;DHT22;61885;53.560;9.940;2022-11-15T04:00:21;6.30;99.90
4673;DHT22;61885;53.560;9.940;2022-11-15T04:02:50;6.30;99.90
4673;DHT22;61885;53.560;9.940;2022-11-15T04:05:20;6.30;99.90
4673;DHT22;61885;53.560;9.940;2022-11-15T04:07:53;6.40;99.90
4673;DHT22;61885;53.560;9.940;2022-11-15T04:10:22;6.40;99.90
4673;DHT22;61885;53.560;9.940;2022-11-15T04:12:52;6.40;99.90
4673;DHT22;61885;53.560;9.940;2022-11-15T04:15:23;6.50;99.90
4673;DHT22;61885;53.560;9.940;2022-11-15T04:17:56;6.50;99.90
4673;DHT22;61885;53.560;9.940;2022-11-15T04:20:29;6.50;99.90
4673;DHT22;61885;53.560;9.940;2022-11-15T04:23:16;6.50;99.90
4673;DHT22;61885;53.560;9.940;2022-11-15T04:26:01;6.50;99.90
4673;DHT22;61885;53.560;9.940;2022-11-15T04:28:31;6.50;99.90
4673;DHT22;61885;53.560;9.940;2022-11-15T04:31:03;6.50;99.90
4673;DHT22;61885;53.560;9.940;2022-11-15T04:33:32;6.50;99.90
4673;DHT22;61885;53.560;9.940;2022-11-15T04:36:05;6.50;99.90
4673;DHT22;61885;53.560;9.940;2022-11-15T04:38:49;6.60;99.90
4673;DHT22;61885;53.560;9.940;2022-11-15T04:41:21;6.60;99.90
4673;DHT22;61885;53.560;9.940;2022-11-15T04:43:52;6.60;99.90
4673;DHT22;61885;53.560;9.940;2022-11-15T04:46:28;6.70;99.90
4673;DHT22;61885;53.560;9.940;2022-11-15T04:48:59;6.80;99.90
4673;DHT22;61885;53.560;9.940;2022-11-15T04:51:31;6.80;99.90
4673;DHT22;61885;53.560;9.940;2022-11-15T04:54:03;6.80;99.90
4673;DHT22;61885;53.560;9.940;2022-11-15T04:56:33;7.70;99.90
4673;DHT22;61885;53.560;9.940;2022-11-15T04:59:03;6.90;99.90
4673;DHT22;61885;53.560;9.940;2022-11-15T05:01:32;6.90;99.90
4673;DHT22;61885;53.560;9.940;2022-11-15T05:04:02;7.00;99.90
4673;DHT22;61885;53.560;9.940;2022-11-15T05:06:46;7.00;99.90
4673;DHT22;61885;53.560;9.940;2022-11-15T05:09:19;7.00;99.90
4673;DHT22;61885;53.560;9.940;2022-11-15T05:11:51;7.00;99.90
4673;DHT22;61885;53.560;9.940;2022-11-15T05:14:21;7.00;99.90
4673;DHT22;61885;53.560;9.940;2022-11-15T05:16:51;7.20;99.90
4673;DHT22;61885;53.560;9.940;2022-11-15T05:19:25;7.10;99.90
4673;DHT22;61885;53.560;9.940;2022-11-15T05:21:56;7.20;99.90
4673;DHT22;61885;53.560;9.940;2022-11-15T05:24:29;7.20;99.90
4673;DHT22;61885;53.560;9.940;2022-11-15T05:26:58;7.60;99.90
4673;DHT22;61885;53.560;9.940;2022-11-15T05:29:28;7.20;99.90
4673;DHT22;61885;53.560;9.940;2022-11-15T05:31:58;7.30;99.90
4673;DHT22;61885;53.560;9.940;2022-11-15T05:34:27;7.30;99.90
4673;DHT22;61885;53.560;9.940;2022-11-15T05:36:59;8.40;99.90
4673;DHT22;61885;53.560;9.940;2022-11-15T05:39:32;7.40;99.90
4673;DHT22;61885;53.560;9.940;2022-11-15T05:42:07;7.40;99.90
4673;DHT22;61885;53.560;9.940;2022-11-15T05:44:43;7.40;99.90
4673;DHT22;61885;53.560;9.940;2022-11-15T05:47:17;7.50;99.90
4673;DHT22;61885;53.560;9.940;2022-11-15T05:49:49;7.60;99.90
4673;DHT22;61885;53.560;9.940;2022-11-15T05:52:27;7.60;99.90
4673;DHT22;61885;53.560;9.940;2022-11-15T05:55:03;7.60;99.90
4673;DHT22;61885;53.560;9.940;2022-11-15T05:57:34;7.60;99.90
4673;DHT22;61885;53.560;9.940;2022-11-15T06:00:07;7.60;99.90
4673;DHT22;61885;53.560;9.940;2022-11-15T06:02:37;7.70;99.90
4673;DHT22;61885;53.560;9.940;2022-11-15T06:05:07;7.80;99.90
4673;DHT22;61885;53.560;9.940;2022-11-15T06:07:37;7.80;99.90
4673;DHT22;61885;53.560;9.940;2022-11-15T06:10:10;7.80;99.90
4673;DHT22;61885;53.560;9.940;2022-11-15T06:12:40;7.80;99.90
4673;DHT22;61885;53.560;9.940;2022-11-15T06:15:10;7.80;99.90
4673;DHT22;61885;53.560;9.940;2022-11-15T06:17:40;7.80;99.90
4673;DHT22;61885;53.560;9.940;2022-11-15T06:20:10;7.70;99.90
4673;DHT22;61885;53.560;9.940;2022-11-15T06:22:40;7.60;99.90
4673;DHT22;61885;53.560;9.940;2022-11-15T06:25:13;7.60;99.90
4673;DHT22;61885;53.560;9.940;2022-11-15T06:27:43;7.70;99.90
4673;DHT22;61885;53.560;9.940;2022-11-15T06:30:13;7.60;99.90
4673;DHT22;61885;53.560;9.940;2022-11-15T06:32:46;7.70;99.90
4673;DHT22;61885;53.560;9.940;2022-11-15T06:35:17;7.70;99.90
4673;DHT22;61885;53.560;9.940;2022-11-15T06:37:47;7.70;99.90
4673;DHT22;61885;53.560;9.940;2022-11-15T06:40:20;7.80;99.90
4673;DHT22;61885;53.560;9.940;2022-11-15T06:42:50;7.80;99.90
4673;DHT22;61885;53.560;9.940;2022-11-15T06:45:22;7.70;99.90
4673;DHT22;61885;53.560;9.940;2022-11-15T06:47:52;7.70;99.90
4673;DHT22;61885;53.560;9.940;2022-11-15T06:50:21;7.70;99.90
4673;DHT22;61885;53.560;9.940;2022-11-15T06:52:51;7.80;99.90
4673;DHT22;61885;53.560;9.940;2022-11-15T06:55:23;7.80;99.90
4673;DHT22;61885;53.560;9.940;2022-11-15T06:57:53;7.80;99.90
4673;DHT22;61885;53.560;9.940;2022-11-15T07:00:23;7.80;99.90
4673;DHT22;61885;53.560;9.940;2022-11-15T07:02:52;7.90;99.90
4673;DHT22;61885;53.560;9.940;2022-11-15T07:05:24;7.90;99.90
4673;DHT22;61885;53.560;9.940;2022-11-15T07:07:55;7.90;99.90
4673;DHT22;61885;53.560;9.940;2022-11-15T07:10:28;8.00;99.90
4673;DHT22;61885;53.560;9.940;2022-11-15T07:12:58;7.90;99.90
4673;DHT22;61885;53.560;9.940;2022-11-15T07:15:29;7.90;99.90
4673;DHT22;61885;53.560;9.940;2022-11-15T07:18:00;7.80;99.90
4673;DHT22;61885;53.560;9.940;2022-11-15T07:20:30;7.90;99.90
4673;DHT22;61885;53.560;9.940;2022-11-15T07:23:00;7.90;99.90
4673;DHT22;61885;53.560;9.940;2022-11-15T07:25:34;7.90;99.90
4673;DHT22;61885;53.560;9.940;2022-11-15T07:28:04;7.90;99.90
4673;DHT22;61885;53.560;9.940;2022-11-15T07:30:34;8.00;99.90
4673;DHT22;61885;53.560;9.940;2022-11-15T07:33:04;7.90;99.90
4673;DHT22;61885;53.560;9.940;2022-11-15T07:35:34;8.00;99.90
4673;DHT22;61885;53.560;9.940;2022-11-15T07:38:06;8.00;99.90
4673;DHT22;61885;53.560;9.940;2022-11-15T07:40:42;8.00;99.90
4673;DHT22;61885;53.560;9.940;2022-11-15T07:43:16;8.00;99.90
4673;DHT22;61885;53.560;9.940;2022-11-15T07:45:46;7.90;99.90
4673;DHT22;61885;53.560;9.940;2022-11-15T07:48:16;7.90;99.90
4673;DHT22;61885;53.560;9.940;2022-11-15T07:50:50;8.00;99.90
4673;DHT22;61885;53.560;9.940;2022-11-15T07:53:21;8.00;99.90
4673;DHT22;61885;53.560;9.940;2022-11-15T07:56:08;8.00;99.90
4673;DHT22;61885;53.560;9.940;2022-11-15T07:58:43;8.00;99.90
4673;DHT22;61885;53.560;9.940;2022-11-15T08:01:19;8.00;99.90
4673;DHT22;61885;53.560;9.940;2022-11-15T08:03:49;8.00;99.90
4673;DHT22;61885;53.560;9.940;2022-11-15T08:06:21;8.10;99.90
4673;DHT22;61885;53.560;9.940;2022-11-15T08:08:52;8.00;99.90
4673;DHT22;61885;53.560;9.940;2022-11-15T08:11:30;8.10;99.90
4673;DHT22;61885;53.560;9.940;2022-11-15T08:14:00;8.00;99.90
4673;DHT22;61885;53.560;9.940;2022-11-15T08:16:32;8.10;99.90
4673;DHT22;61885;53.560;9.940;2022-11-15T08:19:07;8.10;99.90
4673;DHT22;61885;53.560;9.940;2022-11-15T08:21:46;8.10;99.90
4673;DHT22;61885;53.560;9.940;2022-11-15T08:24:16;7.10;99.90
4673;DHT22;61885;53.560;9.940;2022-11-15T08:26:48;8.20;99.90
4673;DHT22;61885;53.560;9.940;2022-11-15T08:29:18;8.20;99.90
4673;DHT22;61885;53.560;9.940;2022-11-15T08:31:50;8.30;99.90
4673;DHT22;61885;53.560;9.940;2022-11-15T08:34:28;8.40;99.90
4673;DHT22;61885;53.560;9.940;2022-11-15T08:36:59;8.40;99.90
4673;DHT22;61885;53.560;9.940;2022-11-15T08:39:31;8.40;99.90
4673;DHT22;61885;53.560;9.940;2022-11-15T08:42:05;8.50;99.90
4673;DHT22;61885;53.560;9.940;2022-11-15T08:44:39;8.50;99.90
4673;DHT22;61885;53.560;9.940;2022-11-15T08:47:12;8.50;99.90
4673;DHT22;61885;53.560;9.940;2022-11-15T08:49:44;10.90;99.90
4673;DHT22;61885;53.560;9.940;2022-11-15T08:52:21;9.60;99.90
4673;DHT22;61885;53.560;9.940;2022-11-15T08:54:51;8.70;99.90
4673;DHT22;61885;53.560;9.940;2022-11-15T08:57:27;8.70;99.90
4673;DHT22;61885;53.560;9.940;2022-11-15T09:00:02;8.60;99.90
4673;DHT22;61885;53.560;9.940;2022-11-15T09:02:33;8.60;99.90
4673;DHT22;61885;53.560;9.940;2022-11-15T09:05:11;8.60;99.90
4673;DHT22;61885;53.560;9.940;2022-11-15T09:07:46;8.60;99.90
4673;DHT22;61885;53.560;9.940;2022-11-15T09:10:21;8.60;99.90
4673;DHT22;61885;53.560;9.940;2022-11-15T09:12:54;8.60;99.90
4673;DHT22;61885;53.560;9.940;2022-11-15T09:15:25;8.60;99.90
4673;DHT22;61885;53.560;9.940;2022-11-15T09:17:58;8.80;99.90
4673;DHT22;61885;53.560;9.940;2022-11-15T09:20:30;8.80;99.90
4673;DHT22;61885;53.560;9.940;2022-11-15T09:23:02;11.60;99.90
4673;DHT22;61885;53.560;9.940;2022-11-15T09:25:37;9.00;99.90
4673;DHT22;61885;53.560;9.940;2022-11-15T09:28:10;9.20;99.90
4673;DHT22;61885;53.560;9.940;2022-11-15T09:30:40;9.30;99.90
4673;DHT22;61885;53.560;9.940;2022-11-15T09:33:11;9.40;99.90
4673;DHT22;61885;53.560;9.940;2022-11-15T09:35:43;9.50;99.90
4673;DHT22;61885;53.560;9.940;2022-11-15T09:38:13;9.50;99.90
4673;DHT22;61885;53.560;9.940;2022-11-15T09:40:45;9.50;99.90
4673;DHT22;61885;53.560;9.940;2022-11-15T09:43:35;9.50;99.90
4673;DHT22;61885;53.560;9.940;2022-11-15T09:46:15;9.50;99.90
4673;DHT22;61885;53.560;9.940;2022-11-15T09:48:50;9.70;99.90
4673;DHT22;61885;53.560;9.940;2022-11-15T09:51:29;10.70;99.90
4673;DHT22;61885;53.560;9.940;2022-11-15T09:54:05;9.60;99.90
4673;DHT22;61885;53.560;9.940;2022-11-15T09:56:41;9.60;99.90
4673;DHT22;61885;53.560;9.940;2022-11-15T10:02:30;9.70;99.90
4673;DHT22;61885;53.560;9.940;2022-11-15T10:05:02;9.70;99.90
4673;DHT22;61885;53.560;9.940;2022-11-15T10:07:46;9.70;99.90
4673;DHT22;61885;53.560;9.940;2022-11-15T10:10:27;10.00;99.90
4673;DHT22;61885;53.560;9.940;2022-11-15T10:12:59;9.60;99.90
4673;DHT22;61885;53.560;9.940;2022-11-15T10:15:28;9.60;99.90
4673;DHT22;61885;53.560;9.940;2022-11-15T10:18:13;9.90;99.90
4673;DHT22;61885;53.560;9.940;2022-11-15T10:20:49;9.80;99.90
4673;DHT22;61885;53.560;9.940;2022-11-15T10:23:21;9.80;99.90
4673;DHT22;61885;53.560;9.940;2022-11-15T10:25:53;9.80;99.90
4673;DHT22;61885;53.560;9.940;2022-11-15T10:28:27;9.90;99.90
4673;DHT22;61885;53.560;9.940;2022-11-15T10:31:01;9.90;99.90
4673;DHT22;61885;53.560;9.940;2022-11-15T10:33:36;9.90;99.90
4673;DHT22;61885;53.560;9.940;2022-11-15T10:36:23;10.00;99.90
4673;DHT22;61885;53.560;9.940;2022-11-15T10:38:57;10.00;99.90
4673;DHT22;61885;53.560;9.940;2022-11-15T10:41:38;10.00;99.90
4673;DHT22;61885;53.560;9.940;2022-11-15T10:44:12;10.00;99.90
4673;DHT22;61885;53.560;9.940;2022-11-15T10:50:26;10.10;99.90
4673;DHT22;61885;53.560;9.940;2022-11-15T10:52:56;10.10;99.90
4673;DHT22;61885;53.560;9.940;2022-11-15T10:55:29;10.00;99.90
4673;DHT22;61885;53.560;9.940;2022-11-15T10:58:03;10.10;99.90
4673;DHT22;61885;53.560;9.940;2022-11-15T11:00:39;10.10;99.90
4673;DHT22;61885;53.560;9.940;2022-11-15T11:03:28;10.10;99.90
4673;DHT22;61885;53.560;9.940;2022-11-15T11:06:13;10.20;99.90
4673;DHT22;61885;53.560;9.940;2022-11-15T11:08:55;10.30;99.90
4673;DHT22;61885;53.560;9.940;2022-11-15T11:11:27;10.40;99.90
4673;DHT22;61885;53.560;9.940;2022-11-15T11:14:17;10.30;99.90
4673;DHT22;61885;53.560;9.940;2022-11-15T11:16:52;8.70;99.90
4673;DHT22;61885;53.560;9.940;2022-11-15T11:19:35;10.40;99.90
4673;DHT22;61885;53.560;9.940;2022-11-15T11:22:18;10.50;99.90
4673;DHT22;61885;53.560;9.940;2022-11-15T11:25:01;10.60;99.90
4673;DHT22;61885;53.560;9.940;2022-11-15T11:27:43;10.60;99.90
4673;DHT22;61885;53.560;9.940;2022-11-15T11:30:29;10.70;99.90
4673;DHT22;61885;53.560;9.940;2022-11-15T11:33:08;10.70;99.90
4673;DHT22;61885;53.560;9.940;2022-11-15T11:35:50;10.70;99.90
4673;DHT22;61885;53.560;9.940;2022-11-15T11:38:43;10.80;99.90
4673;DHT22;61885;53.560;9.940;2022-11-15T11:41:24;11.70;99.90
4673;DHT22;61885;53.560;9.940;2022-11-15T11:44:02;10.80;99.90
4673;DHT22;61885;53.560;9.940;2022-11-15T11:46:51;10.80;99.90
4673;DHT22;61885;53.560;9.940;2022-11-15T11:49:31;10.80;99.90
4673;DHT22;61885;53.560;9.940;2022-11-15T11:52:13;10.80;99.90
4673;DHT22;61885;53.560;9.940;2022-11-15T11:54:56;10.80;99.90
4673;DHT22;61885;53.560;9.940;2022-11-15T11:57:38;10.70;99.90
4673;DHT22;61885;53.560;9.940;2022-11-15T12:00:18;10.70;99.90
4673;DHT22;61885;53.560;9.940;2022-11-15T12:03:04;10.80;99.90
4673;DHT22;61885;53.560;9.940;2022-11-15T12:05:42;10.80;99.90
4673;DHT22;61885;53.560;9.940;2022-11-15T12:08:27;10.90;99.90
4673;DHT22;61885;53.560;9.940;2022-11-15T12:11:13;11.00;99.90
4673;DHT22;61885;53.560;9.940;2022-11-15T12:13:49;11.10;99.90
4673;DHT22;61885;53.560;9.940;2022-11-15T12:16:32;11.20;99.90
4673;DHT22;61885;53.560;9.940;2022-11-15T12:19:07;11.20;99.90
4673;DHT22;61885;53.560;9.940;2022-11-15T12:21:50;11.20;99.90
4673;DHT22;61885;53.560;9.940;2022-11-15T12:24:29;11.30;99.90
4673;DHT22;61885;53.560;9.940;2022-11-15T12:27:15;11.40;99.90
4673;DHT22;61885;53.560;9.940;2022-11-15T12:29:49;11.40;99.90
4673;DHT22;61885;53.560;9.940;2022-11-15T12:32:48;11.90;99.90
4673;DHT22;61885;53.560;9.940;2022-11-15T12:35:27;11.30;99.90
4673;DHT22;61885;53.560;9.940;2022-11-15T12:38:10;11.30;99.90
4673;DHT22;61885;53.560;9.940;2022-11-15T12:41:12;11.40;99.90
4673;DHT22;61885;53.560;9.940;2022-11-15T12:43:49;11.40;99.90
4673;DHT22;61885;53.560;9.940;2022-11-15T12:49:11;11.50;99.90
4673;DHT22;61885;53.560;9.940;2022-11-15T12:52:07;11.60;99.90
4673;DHT22;61885;53.560;9.940;2022-11-15T12:54:53;12.90;99.90
4673;DHT22;61885;53.560;9.940;2022-11-15T12:57:30;11.60;99.90
4673;DHT22;61885;53.560;9.940;2022-11-15T13:03:25;11.60;99.90
4673;DHT22;61885;53.560;9.940;2022-11-15T13:06:08;11.60;99.90
4673;DHT22;61885;53.560;9.940;2022-11-15T13:08:44;11.70;99.90
4673;DHT22;61885;53.560;9.940;2022-11-15T13:11:42;11.70;99.90
4673;DHT22;61885;53.560;9.940;2022-11-15T13:14:46;11.60;99.90
4673;DHT22;61885;53.560;9.940;2022-11-15T13:17:34;11.80;99.90
4673;DHT22;61885;53.560;9.940;2022-11-15T13:20:25;11.80;99.90
4673;DHT22;61885;53.560;9.940;2022-11-15T13:23:02;11.90;99.90
4673;DHT22;61885;53.560;9.940;2022-11-15T13:26:02;12.00;99.90
4673;DHT22;61885;53.560;9.940;2022-11-15T13:28:37;12.10;99.90
4673;DHT22;61885;53.560;9.940;2022-11-15T13:31:23;12.20;99.90
4673;DHT22;61885;53.560;9.940;2022-11-15T13:33:56;12.10;99.90
4673;DHT22;61885;53.560;9.940;2022-11-15T13:36:28;13.50;99.90
4673;DHT22;61885;53.560;9.940;2022-11-15T13:39:01;12.10;99.90
4673;DHT22;61885;53.560;9.940;2022-11-15T13:41:36;12.10;99.90
4673;DHT22;61885;53.560;9.940;2022-11-15T13:44:19;12.10;99.90
4673;DHT22;61885;53.560;9.940;2022-11-15T13:47:13;12.10;99.90
4673;DHT22;61885;53.560;9.940;2022-11-15T13:49:43;12.10;99.90
4673;DHT22;61885;53.560;9.940;2022-11-15T13:52:14;12.10;99.90
4673;DHT22;61885;53.560;9.940;2022-11-15T13:54:47;12.20;99.90
4673;DHT22;61885;53.560;9.940;2022-11-15T13:57:25;12.20;99.90
4673;DHT22;61885;53.560;9.940;2022-11-15T14:00:00;12.30;99.90
4673;DHT22;61885;53.560;9.940;2022-11-15T14:02:33;12.30;99.90
4673;DHT22;61885;53.560;9.940;2022-11-15T14:05:16;12.30;99.90
4673;DHT22;61885;53.560;9.940;2022-11-15T14:07:53;12.30;99.90
4673;DHT22;61885;53.560;9.940;2022-11-15T14:10:30;12.30;99.90
4673;DHT22;61885;53.560;9.940;2022-11-15T14:13:03;12.30;99.90
4673;DHT22;61885;53.560;9.940;2022-11-15T14:15:35;12.40;99.90
4673;DHT22;61885;53.560;9.940;2022-11-15T14:18:06;12.50;99.90
4673;DHT22;61885;53.560;9.940;2022-11-15T14:20:38;12.50;99.90
4673;DHT22;61885;53.560;9.940;2022-11-15T14:23:24;12.50;99.90
4673;DHT22;61885;53.560;9.940;2022-11-15T14:25:55;12.50;99.90
4673;DHT22;61885;53.560;9.940;2022-11-15T14:28:36;12.40;99.90
4673;DHT22;61885;53.560;9.940;2022-11-15T14:31:12;12.40;99.90
4673;DHT22;61885;53.560;9.940;2022-11-15T14:33:42;12.70;99.90
4673;DHT22;61885;53.560;9.940;2022-11-15T14:36:14;12.30;99.90
4673;DHT22;61885;53.560;9.940;2022-11-15T14:38:45;12.30;99.90
4673;DHT22;61885;53.560;9.940;2022-11-15T14:41:22;13.70;99.90
4673;DHT22;61885;53.560;9.940;2022-11-15T14:43:58;12.30;99.90
4673;DHT22;61885;53.560;9.940;2022-11-15T14:46:30;12.20;99.90
4673;DHT22;61885;53.560;9.940;2022-11-15T14:49:00;12.10;99.90
4673;DHT22;61885;53.560;9.940;2022-11-15T14:51:30;12.10;99.90
4673;DHT22;61885;53.560;9.940;2022-11-15T14:53:59;12.00;99.90
4673;DHT22;61885;53.560;9.940;2022-11-15T14:56:39;11.90;99.90
4673;DHT22;61885;53.560;9.940;2022-11-15T14:59:13;11.80;99.90
4673;DHT22;61885;53.560;9.940;2022-11-15T15:01:43;11.80;99.90
4673;DHT22;61885;53.560;9.940;2022-11-15T15:04:13;11.80;99.90
4673;DHT22;61885;53.560;9.940;2022-11-15T15:06:43;11.60;99.90
4673;DHT22;61885;53.560;9.940;2022-11-15T15:09:15;11.60;99.90
4673;DHT22;61885;53.560;9.940;2022-11-15T15:11:45;11.50;99.90
4673;DHT22;61885;53.560;9.940;2022-11-15T15:14:18;11.50;99.90
4673;DHT22;61885;53.560;9.940;2022-11-15T15:16:51;11.40;99.90
4673;DHT22;61885;53.560;9.940;2022-11-15T15:19:20;11.40;99.90
4673;DHT22;61885;53.560;9.940;2022-11-15T15:21:50;11.40;99.90
4673;DHT22;61885;53.560;9.940;2022-11-15T15:24:20;11.40;99.90
4673;DHT22;61885;53.560;9.940;2022-11-15T15:26:49;11.30;99.90
4673;DHT22;61885;53.560;9.940;2022-11-15T15:29:24;11.60;99.90
4673;DHT22;61885;53.560;9.940;2022-11-15T15:31:54;11.10;99.90
4673;DHT22;61885;53.560;9.940;2022-11-15T15:34:26;11.20;99.90
4673;DHT22;61885;53.560;9.940;2022-11-15T15:37:09;11.00;99.90
4673;DHT22;61885;53.560;9.940;2022-11-15T15:39:51;11.00;99.90
4673;DHT22;61885;53.560;9.940;2022-11-15T15:42:22;11.00;99.90
4673;DHT22;61885;53.560;9.940;2022-11-15T15:44:55;12.80;99.90
4673;DHT22;61885;53.560;9.940;2022-11-15T15:47:25;11.00;99.90
4673;DHT22;61885;53.560;9.940;2022-11-15T15:49:56;11.00;99.90
4673;DHT22;61885;53.560;9.940;2022-11-15T15:52:26;10.80;99.90
4673;DHT22;61885;53.560;9.940;2022-11-15T15:54:58;10.70;99.90
4673;DHT22;61885;53.560;9.940;2022-11-15T15:57:28;10.60;99.90
4673;DHT22;61885;53.560;9.940;2022-11-15T16:00:01;10.60;99.90
4673;DHT22;61885;53.560;9.940;2022-11-15T16:02:33;10.60;99.90
4673;DHT22;61885;53.560;9.940;2022-11-15T16:05:03;10.60;99.90
4673;DHT22;61885;53.560;9.940;2022-11-15T16:07:36;10.60;99.90
4673;DHT22;61885;53.560;9.940;2022-11-15T16:10:22;10.50;99.90
4673;DHT22;61885;53.560;9.940;2022-11-15T16:12:54;10.50;99.90
4673;DHT22;61885;53.560;9.940;2022-11-15T16:15:30;10.50;99.90
4673;DHT22;61885;53.560;9.940;2022-11-15T16:18:03;10.50;99.90
4673;DHT22;61885;53.560;9.940;2022-11-15T16:20:36;10.50;99.90
4673;DHT22;61885;53.560;9.940;2022-11-15T16:23:14;10.50;99.90
4673;DHT22;61885;53.560;9.940;2022-11-15T16:25:46;10.50;99.90
4673;DHT22;61885;53.560;9.940;2022-11-15T16:28:21;10.50;99.90
4673;DHT22;61885;53.560;9.940;2022-11-15T16:31:00;10.50;99.90
4673;DHT22;61885;53.560;9.940;2022-11-15T16:33:31;10.50;99.90
4673;DHT22;61885;53.560;9.940;2022-11-15T16:36:01;10.50;99.90
4673;DHT22;61885;53.560;9.940;2022-11-15T16:38:31;10.60;99.90
4673;DHT22;61885;53.560;9.940;2022-11-15T16:41:02;10.60;99.90
4673;DHT22;61885;53.560;9.940;2022-11-15T16:43:34;10.70;99.90
4673;DHT22;61885;53.560;9.940;2022-11-15T16:46:12;10.70;99.90
4673;DHT22;61885;53.560;9.940;2022-11-15T16:48:43;10.60;99.90
4673;DHT22;61885;53.560;9.940;2022-11-15T16:51:13;10.60;99.90
4673;DHT22;61885;53.560;9.940;2022-11-15T16:53:43;10.60;99.90
4673;DHT22;61885;53.560;9.940;2022-11-15T16:56:23;10.60;99.90
4673;DHT22;61885;53.560;9.940;2022-11-15T16:58:58;10.60;99.90
4673;DHT22;61885;53.560;9.940;2022-11-15T17:01:34;10.50;99.90
4673;DHT22;61885;53.560;9.940;2022-11-15T17:04:13;10.50;99.90
4673;DHT22;61885;53.560;9.940;2022-11-15T17:06:45;10.50;99.90